Time;durP1;ratioP1;P1;durP2;ratioP2;P2;SDS_P1;SDS_P2;PMS_P1;PMS_P2;Temp;Humidity;BMP_temperature;BMP_pressure;BME280_temperature;BME280_humidity;BME280_pressure;Samples;Min_cycle;Max_cycle;Signal;HPM_P1;HPM_P2
2022/11/09 00:00:33;;;;;;;8.85;2.47;;;;;;;;;;5042416;28;20055;-67
2022/11/09 00:02:59;;;;;;;11.30;2.05;;;;;;;;;;5071896;28;20550;-67
2022/11/09 00:05:25;;;;;;;7.72;1.73;;;;;;;;;;5041383;28;20110;-67
2022/11/09 00:07:51;;;;;;;11.55;1.67;;;;;;;;;;5045038;28;20045;-66
2022/11/09 00:10:17;;;;;;;11.02;2.10;;;;;;;;;;5039469;28;20053;-67
2022/11/09 00:12:43;;;;;;;11.07;1.55;;;;;;;;;;5042266;28;20059;-67
2022/11/09 00:15:10;;;;;;;11.15;2.40;;;;;;;;;;5040550;28;20053;-66
2022/11/09 00:17:36;;;;;;;12.20;1.50;;;;;;;;;;5040412;28;20320;-66
2022/11/09 00:20:03;;;;;;;7.07;1.23;;;;;;;;;;5042872;28;20428;-67
2022/11/09 00:22:29;;;;;;;11.10;1.25;;;;;;;;;;5073468;28;20057;-67
2022/11/09 00:24:55;;;;;;;12.10;1.65;;;;;;;;;;5036235;28;20048;-67
2022/11/09 00:27:21;;;;;;;6.28;1.48;;;;;;;;;;5042591;28;20041;-67
2022/11/09 00:29:47;;;;;;;12.10;2.65;;;;;;;;;;5043251;28;20392;-67
2022/11/09 00:32:13;;;;;;;5.45;1.42;;;;;;;;;;5044344;28;20043;-67
2022/11/09 00:34:39;;;;;;;11.10;1.52;;;;;;;;;;5043471;28;20131;-67
2022/11/09 00:37:06;;;;;;;7.82;1.50;;;;;;;;;;5054843;28;20095;-67
2022/11/09 00:39:32;;;;;;;9.15;1.73;;;;;;;;;;5038446;28;20045;-67
2022/11/09 00:41:58;;;;;;;8.52;1.40;;;;;;;;;;5043874;28;20096;-67
2022/11/09 00:44:24;;;;;;;4.10;1.25;;;;;;;;;;5036086;28;20131;-67
2022/11/09 00:46:50;;;;;;;4.80;1.40;;;;;;;;;;5040629;28;20045;-67
2022/11/09 00:49:16;;;;;;;13.05;1.63;;;;;;;;;;5039429;28;20075;-67
2022/11/09 00:51:42;;;;;;;9.68;1.60;;;;;;;;;;5042694;28;20445;-67
2022/11/09 00:54:08;;;;;;;7.68;1.42;;;;;;;;;;5040387;28;20067;-67
2022/11/09 00:56:35;;;;;;;5.90;1.80;;;;;;;;;;5040689;28;20150;-67
2022/11/09 00:59:01;;;;;;;10.32;2.13;;;;;;;;;;5036714;28;20053;-67
2022/11/09 01:01:27;;;;;;;7.30;2.20;;;;;;;;;;5043779;28;20072;-67
2022/11/09 01:03:53;;;;;;;8.00;2.10;;;;;;;;;;5070317;28;20506;-67
2022/11/09 01:06:25;;;;;;;14.20;2.92;;;;;;;;;;5040970;28;20564;-67
2022/11/09 01:08:52;;;;;;;10.75;3.13;;;;;;;;;;5074865;28;20041;-67
2022/11/09 01:11:19;;;;;;;11.43;3.40;;;;;;;;;;5041453;28;20041;-67
2022/11/09 01:13:45;;;;;;;12.85;3.17;;;;;;;;;;5039398;28;20353;-67
2022/11/09 01:16:13;;;;;;;8.45;3.42;;;;;;;;;;5041796;28;20049;-67
2022/11/09 01:18:39;;;;;;;10.63;3.97;;;;;;;;;;5040932;28;20095;-66
2022/11/09 01:21:06;;;;;;;11.85;3.63;;;;;;;;;;5037241;28;20098;-67
2022/11/09 01:23:33;;;;;;;11.55;3.58;;;;;;;;;;5039568;28;20445;-67
2022/11/09 01:25:59;;;;;;;10.13;3.30;;;;;;;;;;5043263;28;20395;-67
2022/11/09 01:28:25;;;;;;;17.52;3.40;;;;;;;;;;5037463;28;20368;-67
2022/11/09 01:30:52;;;;;;;11.30;2.97;;;;;;;;;;5043384;28;20043;-67
2022/11/09 01:33:18;;;;;;;10.70;3.10;;;;;;;;;;5038774;28;20045;-67
2022/11/09 01:35:44;;;;;;;10.45;3.03;;;;;;;;;;5071414;28;20056;-67
2022/11/09 01:38:10;;;;;;;10.52;3.20;;;;;;;;;;5042800;28;20060;-67
2022/11/09 01:40:38;;;;;;;14.35;3.00;;;;;;;;;;5041211;28;20485;-67
2022/11/09 01:43:14;;;;;;;11.93;3.08;;;;;;;;;;5039427;28;20045;-67
2022/11/09 01:45:42;;;;;;;19.55;3.55;;;;;;;;;;5042726;28;20467;-67
2022/11/09 01:48:10;;;;;;;11.77;2.70;;;;;;;;;;5041242;28;20515;-67
2022/11/09 01:50:48;;;;;;;8.52;2.30;;;;;;;;;;5041827;28;20052;-67
2022/11/09 01:53:17;;;;;;;10.77;2.67;;;;;;;;;;5042034;28;20037;-66
2022/11/09 01:55:44;;;;;;;11.27;2.63;;;;;;;;;;5038282;28;20045;-67
2022/11/09 01:58:14;;;;;;;9.40;2.63;;;;;;;;;;5042390;28;20413;-67
2022/11/09 02:00:44;;;;;;;12.25;3.25;;;;;;;;;;5071390;28;20805;-67
2022/11/09 02:03:14;;;;;;;12.30;3.13;;;;;;;;;;5038935;28;20048;-67
2022/11/09 02:05:41;;;;;;;12.13;2.80;;;;;;;;;;5041292;28;20037;-67
2022/11/09 02:08:08;;;;;;;19.15;3.22;;;;;;;;;;5070779;28;20826;-67
2022/11/09 02:10:38;;;;;;;11.57;2.90;;;;;;;;;;5038311;28;20060;-67
2022/11/09 02:13:05;;;;;;;9.70;2.63;;;;;;;;;;5033732;28;20037;-66
2022/11/09 02:15:31;;;;;;;10.98;3.25;;;;;;;;;;5042153;28;20047;-67
2022/11/09 02:17:57;;;;;;;11.15;2.92;;;;;;;;;;5039031;28;20472;-67
2022/11/09 02:20:24;;;;;;;15.70;3.72;;;;;;;;;;5041766;28;20397;-67
2022/11/09 02:22:50;;;;;;;22.17;4.55;;;;;;;;;;5036907;28;20045;-67
2022/11/09 02:25:17;;;;;;;15.35;4.22;;;;;;;;;;5038355;28;20390;-67
2022/11/09 02:27:43;;;;;;;13.77;4.13;;;;;;;;;;5066526;28;20128;-67
2022/11/09 02:30:10;;;;;;;17.90;5.07;;;;;;;;;;5038529;28;20063;-66
2022/11/09 02:32:37;;;;;;;12.82;3.65;;;;;;;;;;5035045;28;20048;-66
2022/11/09 02:35:03;;;;;;;17.13;4.70;;;;;;;;;;5038976;28;20047;-67
2022/11/09 02:37:29;;;;;;;12.30;4.03;;;;;;;;;;5037395;28;20350;-66
2022/11/09 02:39:56;;;;;;;14.52;4.00;;;;;;;;;;5038993;28;20048;-66
2022/11/09 02:42:23;;;;;;;14.32;3.63;;;;;;;;;;5070179;28;20041;-67
2022/11/09 02:44:52;;;;;;;11.52;3.53;;;;;;;;;;5037113;28;20052;-66
2022/11/09 02:47:18;;;;;;;14.27;3.80;;;;;;;;;;5043529;28;20043;-66
2022/11/09 02:49:44;;;;;;;13.50;4.60;;;;;;;;;;5039440;28;20099;-67
2022/11/09 02:52:11;;;;;;;13.27;3.42;;;;;;;;;;5042291;28;20412;-67
2022/11/09 02:54:37;;;;;;;13.35;3.70;;;;;;;;;;5042324;28;20954;-67
2022/11/09 02:57:03;;;;;;;10.88;3.42;;;;;;;;;;5039414;28;20037;-65
2022/11/09 02:59:29;;;;;;;13.55;4.10;;;;;;;;;;5039514;28;20041;-67
2022/11/09 03:01:55;;;;;;;14.10;3.58;;;;;;;;;;5077354;28;20758;-67
2022/11/09 03:04:21;;;;;;;8.27;3.28;;;;;;;;;;5074064;28;20090;-67
2022/11/09 03:06:47;;;;;;;15.15;3.03;;;;;;;;;;5040171;28;20132;-67
2022/11/09 03:09:14;;;;;;;20.98;3.72;;;;;;;;;;5041139;28;20045;-67
2022/11/09 03:11:41;;;;;;;19.70;3.42;;;;;;;;;;5040874;28;20037;-67
2022/11/09 03:14:08;;;;;;;19.20;2.95;;;;;;;;;;5045182;28;20114;-67
2022/11/09 03:16:35;;;;;;;12.23;3.55;;;;;;;;;;5041757;28;20045;-67
2022/11/09 03:19:01;;;;;;;22.65;4.00;;;;;;;;;;5045168;28;20123;-67
2022/11/09 03:21:28;;;;;;;11.50;2.70;;;;;;;;;;5042463;28;20045;-67
2022/11/09 03:23:54;;;;;;;13.88;2.38;;;;;;;;;;5043121;28;21481;-67
2022/11/09 03:26:21;;;;;;;12.32;2.60;;;;;;;;;;5043063;28;20041;-67
2022/11/09 03:28:47;;;;;;;16.42;3.00;;;;;;;;;;5045084;28;20071;-67
2022/11/09 03:31:13;;;;;;;12.43;2.75;;;;;;;;;;5044084;28;20111;-67
2022/11/09 03:33:39;;;;;;;15.65;2.58;;;;;;;;;;5044568;28;20048;-67
2022/11/09 03:36:06;;;;;;;14.98;2.60;;;;;;;;;;5040342;28;20488;-67
2022/11/09 03:38:32;;;;;;;13.57;2.75;;;;;;;;;;5073184;28;20041;-67
2022/11/09 03:40:59;;;;;;;13.25;2.65;;;;;;;;;;5044401;28;20041;-68
2022/11/09 03:43:25;;;;;;;13.88;2.75;;;;;;;;;;5040291;28;20045;-67
2022/11/09 03:45:51;;;;;;;14.80;3.75;;;;;;;;;;5040534;28;20485;-67
2022/11/09 03:48:17;;;;;;;12.63;2.58;;;;;;;;;;5039674;28;20086;-67
2022/11/09 03:50:44;;;;;;;16.13;3.40;;;;;;;;;;5039863;28;20053;-67
2022/11/09 03:53:10;;;;;;;18.00;3.38;;;;;;;;;;5042361;28;20052;-67
2022/11/09 03:55:37;;;;;;;11.82;2.78;;;;;;;;;;5044963;28;20496;-67
2022/11/09 03:58:04;;;;;;;19.50;3.60;;;;;;;;;;5076254;28;20049;-67
2022/11/09 04:00:30;;;;;;;14.07;2.60;;;;;;;;;;5039168;28;20060;-67
2022/11/09 04:02:56;;;;;;;16.10;2.75;;;;;;;;;;5044575;28;20045;-67
2022/11/09 04:05:23;;;;;;;13.93;3.17;;;;;;;;;;5039334;28;20041;-67
2022/11/09 04:07:51;;;;;;;16.15;2.63;;;;;;;;;;5042766;28;20453;-67
2022/11/09 04:10:18;;;;;;;14.23;3.67;;;;;;;;;;5041478;28;20045;-67
2022/11/09 04:12:44;;;;;;;16.45;3.38;;;;;;;;;;5037217;28;20053;-67
2022/11/09 04:15:10;;;;;;;15.25;2.97;;;;;;;;;;5072722;28;20045;-67
2022/11/09 04:17:36;;;;;;;16.95;3.42;;;;;;;;;;5071063;28;20238;-67
2022/11/09 04:20:03;;;;;;;14.63;2.78;;;;;;;;;;5072383;28;20146;-67
2022/11/09 04:22:29;;;;;;;15.80;2.42;;;;;;;;;;5038295;28;20192;-68
2022/11/09 04:24:55;;;;;;;17.15;3.75;;;;;;;;;;5042387;28;20052;-68
2022/11/09 04:27:21;;;;;;;11.02;2.75;;;;;;;;;;5040717;28;20171;-67
2022/11/09 04:29:48;;;;;;;15.85;3.63;;;;;;;;;;5042345;28;20074;-67
2022/11/09 04:32:14;;;;;;;15.43;3.13;;;;;;;;;;5037891;28;20050;-68
2022/11/09 04:34:40;;;;;;;13.00;2.70;;;;;;;;;;5038053;28;20045;-68
2022/11/09 04:37:06;;;;;;;15.35;2.95;;;;;;;;;;5040853;28;20200;-67
2022/11/09 04:39:33;;;;;;;14.88;2.50;;;;;;;;;;5041646;28;20072;-67
2022/11/09 04:41:59;;;;;;;14.43;2.90;;;;;;;;;;5042518;28;20079;-67
2022/11/09 04:44:25;;;;;;;15.52;3.20;;;;;;;;;;5043521;28;20576;-67
2022/11/09 04:46:51;;;;;;;13.07;2.92;;;;;;;;;;5072788;28;20041;-67
2022/11/09 04:49:17;;;;;;;17.08;2.70;;;;;;;;;;5075575;28;20049;-67
2022/11/09 04:51:43;;;;;;;16.67;2.67;;;;;;;;;;5040513;28;20041;-67
2022/11/09 04:54:10;;;;;;;15.75;2.78;;;;;;;;;;5043166;28;20098;-67
2022/11/09 04:56:36;;;;;;;17.05;2.72;;;;;;;;;;5040348;28;20068;-67
2022/11/09 04:59:03;;;;;;;17.42;4.00;;;;;;;;;;5039163;28;20495;-68
2022/11/09 05:01:29;;;;;;;20.48;3.50;;;;;;;;;;5039998;28;20492;-67
2022/11/09 05:03:55;;;;;;;14.95;3.05;;;;;;;;;;5045437;28;20080;-67
2022/11/09 05:06:30;;;;;;;20.35;3.13;;;;;;;;;;5043810;28;20037;-67
2022/11/09 05:08:57;;;;;;;16.45;2.97;;;;;;;;;;5046597;28;20392;-67
2022/11/09 05:11:23;;;;;;;14.52;3.50;;;;;;;;;;5037247;28;20075;-67
2022/11/09 05:13:51;;;;;;;15.30;3.25;;;;;;;;;;5036774;28;20048;-67
2022/11/09 05:16:17;;;;;;;15.38;2.75;;;;;;;;;;5040029;28;20127;-68
2022/11/09 05:18:43;;;;;;;15.90;2.83;;;;;;;;;;5073631;28;20041;-67
2022/11/09 05:21:09;;;;;;;17.38;3.72;;;;;;;;;;5041023;28;20087;-67
2022/11/09 05:26:21;;;;;;;22.08;4.20;;;;;;;;;;5058319;28;20067;-67
2022/11/09 05:28:47;;;;;;;13.98;3.30;;;;;;;;;;5070463;28;20136;-67
2022/11/09 05:31:13;;;;;;;16.98;3.28;;;;;;;;;;5043828;28;20124;-67
2022/11/09 05:33:39;;;;;;;13.55;2.80;;;;;;;;;;5035113;28;20155;-67
2022/11/09 05:36:05;;;;;;;20.58;3.50;;;;;;;;;;5042327;28;20126;-67
2022/11/09 05:38:32;;;;;;;16.50;2.50;;;;;;;;;;5040405;28;20044;-67
2022/11/09 05:40:58;;;;;;;17.92;2.80;;;;;;;;;;5041893;28;20033;-67
2022/11/09 05:43:24;;;;;;;17.50;4.07;;;;;;;;;;5039947;28;20057;-68
2022/11/09 05:45:50;;;;;;;11.20;3.08;;;;;;;;;;5039707;28;20064;-68
2022/11/09 05:48:17;;;;;;;17.35;3.25;;;;;;;;;;5041575;28;20040;-67
2022/11/09 05:50:44;;;;;;;20.63;3.17;;;;;;;;;;5075795;28;20049;-67
2022/11/09 05:53:10;;;;;;;15.80;3.50;;;;;;;;;;5038679;28;20060;-67
2022/11/09 05:55:37;;;;;;;10.48;2.47;;;;;;;;;;5038769;28;20157;-67
2022/11/09 05:58:03;;;;;;;16.40;3.35;;;;;;;;;;5042270;28;20382;-67
2022/11/09 06:00:30;;;;;;;17.58;3.33;;;;;;;;;;5042034;28;20412;-68
2022/11/09 06:03:03;;;;;;;15.63;3.13;;;;;;;;;;5035162;28;20129;-68
2022/11/09 06:05:29;;;;;;;12.98;2.53;;;;;;;;;;5045220;28;20494;-68
2022/11/09 06:08:01;;;;;;;15.10;3.70;;;;;;;;;;5062823;28;20041;-67
2022/11/09 06:10:27;;;;;;;14.85;2.83;;;;;;;;;;5071086;28;20052;-67
2022/11/09 06:12:53;;;;;;;15.25;3.50;;;;;;;;;;5048021;28;20097;-67
2022/11/09 06:15:19;;;;;;;17.17;3.72;;;;;;;;;;5079399;28;20049;-67
2022/11/09 06:17:50;;;;;;;13.40;2.92;;;;;;;;;;5042746;28;20437;-68
2022/11/09 06:20:16;;;;;;;16.13;3.67;;;;;;;;;;5044615;28;20045;-67
2022/11/09 06:22:43;;;;;;;17.08;3.17;;;;;;;;;;5035722;28;20045;-68
2022/11/09 06:25:09;;;;;;;13.77;3.65;;;;;;;;;;5044649;28;20056;-68
2022/11/09 06:27:35;;;;;;;17.38;2.80;;;;;;;;;;5040270;28;20038;-67
2022/11/09 06:30:01;;;;;;;14.90;2.78;;;;;;;;;;5036119;28;20041;-67
2022/11/09 06:32:28;;;;;;;17.73;3.33;;;;;;;;;;5039157;28;20072;-67
2022/11/09 06:34:54;;;;;;;12.95;2.90;;;;;;;;;;5045076;28;20056;-67
2022/11/09 06:37:20;;;;;;;11.30;2.40;;;;;;;;;;5053692;28;20053;-68
2022/11/09 06:39:47;;;;;;;9.43;2.30;;;;;;;;;;5055380;28;20055;-67
2022/11/09 06:42:13;;;;;;;14.75;2.80;;;;;;;;;;5053062;28;20525;-68
2022/11/09 06:44:39;;;;;;;14.23;2.22;;;;;;;;;;5048172;28;20392;-68
2022/11/09 06:47:05;;;;;;;15.43;3.10;;;;;;;;;;5048961;28;20033;-68
2022/11/09 06:49:31;;;;;;;13.30;2.42;;;;;;;;;;5048689;28;20186;-68
2022/11/09 06:51:57;;;;;;;17.42;3.80;;;;;;;;;;5047128;28;20069;-68
2022/11/09 06:54:24;;;;;;;14.27;2.45;;;;;;;;;;5047234;28;20044;-67
2022/11/09 06:56:50;;;;;;;12.90;2.75;;;;;;;;;;5048228;28;20049;-67
2022/11/09 06:59:16;;;;;;;22.77;3.97;;;;;;;;;;5038862;28;20053;-68
2022/11/09 07:01:42;;;;;;;14.63;2.45;;;;;;;;;;5043912;28;20130;-67
2022/11/09 07:04:08;;;;;;;12.85;2.90;;;;;;;;;;5045132;28;20048;-67
2022/11/09 07:06:39;;;;;;;19.88;2.90;;;;;;;;;;5076013;28;20049;-67
2022/11/09 07:09:05;;;;;;;14.15;2.65;;;;;;;;;;5040369;28;20049;-67
2022/11/09 07:11:31;;;;;;;16.25;4.28;;;;;;;;;;5040800;28;20052;-67
2022/11/09 07:13:57;;;;;;;13.82;3.40;;;;;;;;;;5046357;28;20037;-67
2022/11/09 07:16:23;;;;;;;12.68;2.80;;;;;;;;;;5040153;28;20045;-67
2022/11/09 07:18:49;;;;;;;14.80;2.78;;;;;;;;;;5043145;28;20080;-67
2022/11/09 07:21:16;;;;;;;15.23;3.15;;;;;;;;;;5039180;28;20092;-67
2022/11/09 07:23:42;;;;;;;13.02;2.58;;;;;;;;;;5052197;28;20457;-67
2022/11/09 07:26:09;;;;;;;13.70;2.55;;;;;;;;;;5038871;28;20069;-67
2022/11/09 07:28:36;;;;;;;16.80;3.15;;;;;;;;;;5073095;28;20080;-66
2022/11/09 07:31:02;;;;;;;21.27;4.15;;;;;;;;;;5050472;28;20049;-67
2022/11/09 07:33:29;;;;;;;15.77;3.25;;;;;;;;;;5086317;28;20108;-67
2022/11/09 07:35:57;;;;;;;13.52;4.05;;;;;;;;;;5054568;28;20056;-66
2022/11/09 07:38:23;;;;;;;12.93;3.05;;;;;;;;;;5054500;28;20041;-66
2022/11/09 07:40:49;;;;;;;14.27;3.00;;;;;;;;;;5053250;28;20089;-66
2022/11/09 07:43:16;;;;;;;15.38;3.15;;;;;;;;;;5049910;28;20064;-67
2022/11/09 07:45:42;;;;;;;9.63;2.83;;;;;;;;;;5054455;28;20114;-67
2022/11/09 07:48:10;;;;;;;13.80;2.30;;;;;;;;;;5051182;28;20045;-66
2022/11/09 07:50:36;;;;;;;22.15;3.95;;;;;;;;;;5052830;28;20040;-79
2022/11/09 07:53:04;;;;;;;16.00;3.20;;;;;;;;;;5054534;28;20079;-66
2022/11/09 07:55:30;;;;;;;17.55;3.58;;;;;;;;;;5053474;28;20040;-66
2022/11/09 07:57:56;;;;;;;10.73;2.95;;;;;;;;;;5049600;28;20139;-65
2022/11/09 08:00:22;;;;;;;18.20;2.97;;;;;;;;;;5053941;28;20515;-67
2022/11/09 08:02:49;;;;;;;13.05;2.83;;;;;;;;;;5053350;28;20119;-66
2022/11/09 08:05:16;;;;;;;12.90;2.67;;;;;;;;;;5053701;28;20535;-67
2022/11/09 08:07:42;;;;;;;17.77;2.95;;;;;;;;;;5054260;28;20072;-67
2022/11/09 08:10:08;;;;;;;12.65;2.80;;;;;;;;;;5051859;28;20055;-67
2022/11/09 08:12:35;;;;;;;15.27;3.20;;;;;;;;;;5047405;28;20151;-67
2022/11/09 08:15:01;;;;;;;17.20;3.00;;;;;;;;;;5054001;28;20049;-68
2022/11/09 08:17:27;;;;;;;17.10;2.92;;;;;;;;;;5052757;28;20524;-66
2022/11/09 08:19:53;;;;;;;13.60;2.53;;;;;;;;;;5050929;28;20065;-65
2022/11/09 08:22:19;;;;;;;17.27;3.08;;;;;;;;;;5048985;28;20139;-68
2022/11/09 08:24:45;;;;;;;16.90;3.47;;;;;;;;;;5043989;28;20052;-68
2022/11/09 08:27:11;;;;;;;20.98;3.47;;;;;;;;;;5052394;28;20045;-67
2022/11/09 08:29:38;;;;;;;11.57;2.28;;;;;;;;;;5084240;28;20041;-68
2022/11/09 08:32:04;;;;;;;13.38;3.33;;;;;;;;;;5052133;28;20051;-68
2022/11/09 08:34:30;;;;;;;17.45;2.85;;;;;;;;;;5053512;28;20112;-68
2022/11/09 08:36:59;;;;;;;11.57;2.38;;;;;;;;;;5039505;28;20131;-68
2022/11/09 08:39:25;;;;;;;18.33;3.28;;;;;;;;;;5053479;28;20116;-67
2022/11/09 08:41:51;;;;;;;16.05;3.15;;;;;;;;;;5052539;28;20049;-67
2022/11/09 08:44:17;;;;;;;17.95;3.50;;;;;;;;;;5074961;28;20041;-68
2022/11/09 08:46:43;;;;;;;19.45;3.90;;;;;;;;;;5063417;28;20126;-68
2022/11/09 08:49:09;;;;;;;18.42;3.47;;;;;;;;;;5079017;28;20459;-68
2022/11/09 08:51:35;;;;;;;18.13;3.38;;;;;;;;;;5046742;28;20033;-68
2022/11/09 08:54:02;;;;;;;11.77;2.83;;;;;;;;;;5081716;28;20444;-68
2022/11/09 08:56:28;;;;;;;14.02;2.42;;;;;;;;;;5049439;28;20182;-68
2022/11/09 08:58:54;;;;;;;13.43;2.85;;;;;;;;;;5045649;28;20053;-68
2022/11/09 09:01:20;;;;;;;17.83;3.00;;;;;;;;;;5047874;28;20037;-68
2022/11/09 09:03:46;;;;;;;17.63;4.00;;;;;;;;;;5048175;28;20116;-68
2022/11/09 09:06:12;;;;;;;16.33;3.92;;;;;;;;;;5048328;28;20393;-68
2022/11/09 09:08:39;;;;;;;17.75;3.75;;;;;;;;;;5047368;28;20056;-68
2022/11/09 09:11:05;;;;;;;16.23;2.95;;;;;;;;;;5049061;28;20535;-69
2022/11/09 09:13:32;;;;;;;22.27;3.95;;;;;;;;;;5041778;28;20461;-68
2022/11/09 09:15:58;;;;;;;11.70;2.55;;;;;;;;;;5044784;28;20044;-68
2022/11/09 09:18:24;;;;;;;14.57;3.55;;;;;;;;;;5042705;28;20120;-68
2022/11/09 09:20:50;;;;;;;21.55;3.70;;;;;;;;;;5044316;28;20117;-68
2022/11/09 09:23:16;;;;;;;17.00;3.20;;;;;;;;;;5044121;28;20067;-68
2022/11/09 09:25:43;;;;;;;16.40;2.58;;;;;;;;;;5042720;28;20052;-68
2022/11/09 09:28:09;;;;;;;15.63;3.03;;;;;;;;;;5042562;28;20117;-68
2022/11/09 09:30:35;;;;;;;13.52;2.97;;;;;;;;;;5043686;28;20072;-68
2022/11/09 09:33:01;;;;;;;10.32;2.50;;;;;;;;;;5042908;28;20033;-68
2022/11/09 09:35:28;;;;;;;13.98;2.60;;;;;;;;;;5076033;28;20132;-68
2022/11/09 09:37:54;;;;;;;13.68;2.42;;;;;;;;;;5076700;28;20073;-68
2022/11/09 09:40:24;;;;;;;16.85;3.80;;;;;;;;;;5076971;28;20053;-68
2022/11/09 09:42:52;;;;;;;16.27;3.55;;;;;;;;;;5043980;28;20044;-68
2022/11/09 09:45:20;;;;;;;17.00;3.47;;;;;;;;;;5041635;28;20049;-67
2022/11/09 09:47:50;;;;;;;13.30;3.45;;;;;;;;;;5043543;28;20077;-68
2022/11/09 09:50:20;;;;;;;15.90;3.10;;;;;;;;;;5041855;28;20063;-68
2022/11/09 09:53:00;;;;;;;16.45;4.35;;;;;;;;;;5042631;28;20064;-68
2022/11/09 09:55:33;;;;;;;13.00;2.70;;;;;;;;;;5041400;28;20420;-68
2022/11/09 09:58:05;;;;;;;11.98;2.85;;;;;;;;;;5043405;28;20684;-68
2022/11/09 10:00:33;;;;;;;17.08;4.07;;;;;;;;;;5046226;28;20041;-67
2022/11/09 10:02:59;;;;;;;11.68;3.33;;;;;;;;;;5042417;28;20170;-67
2022/11/09 10:05:29;;;;;;;15.23;3.17;;;;;;;;;;5045213;28;20378;-68
2022/11/09 10:08:03;;;;;;;19.58;3.75;;;;;;;;;;5044362;28;20160;-67
2022/11/09 10:10:43;;;;;;;15.43;2.80;;;;;;;;;;5045767;28;20049;-68
2022/11/09 10:13:10;;;;;;;17.52;3.75;;;;;;;;;;5045978;28;20043;-68
2022/11/09 10:15:37;;;;;;;12.32;3.00;;;;;;;;;;5040514;28;20045;-67
2022/11/09 10:18:22;;;;;;;15.88;3.35;;;;;;;;;;5043923;28;20047;-67
2022/11/09 10:20:48;;;;;;;20.23;4.32;;;;;;;;;;5045463;28;20029;-68
2022/11/09 10:23:23;;;;;;;20.25;4.78;;;;;;;;;;5044735;28;20106;-67
2022/11/09 10:25:53;;;;;;;18.50;3.83;;;;;;;;;;5046457;28;20575;-68
2022/11/09 10:28:22;;;;;;;13.90;3.70;;;;;;;;;;5044361;28;20374;-68
2022/11/09 10:30:49;;;;;;;13.70;3.53;;;;;;;;;;5043034;28;20053;-68
2022/11/09 10:33:18;;;;;;;16.17;4.63;;;;;;;;;;5044299;28;20046;-67
2022/11/09 10:35:47;;;;;;;16.80;4.32;;;;;;;;;;5047989;28;20041;-68
2022/11/09 10:38:17;;;;;;;17.85;4.80;;;;;;;;;;5047646;28;20041;-68
2022/11/09 10:40:49;;;;;;;17.98;4.88;;;;;;;;;;5049421;28;20052;-67
2022/11/09 10:43:15;;;;;;;18.80;4.78;;;;;;;;;;5078862;28;20072;-67
2022/11/09 10:45:43;;;;;;;16.33;4.55;;;;;;;;;;5044762;28;20114;-68
2022/11/09 10:48:11;;;;;;;15.13;4.43;;;;;;;;;;5047407;28;20053;-68
2022/11/09 10:50:38;;;;;;;15.68;5.15;;;;;;;;;;5045598;28;20052;-68
2022/11/09 10:53:15;;;;;;;14.13;4.05;;;;;;;;;;5049617;28;20045;-68
2022/11/09 10:55:50;;;;;;;18.50;5.03;;;;;;;;;;5066049;28;20056;-68
2022/11/09 10:58:23;;;;;;;13.75;3.83;;;;;;;;;;5050486;28;20132;-68
2022/11/09 11:01:01;;;;;;;14.77;4.10;;;;;;;;;;5051593;28;20116;-68
2022/11/09 11:03:28;;;;;;;16.20;4.30;;;;;;;;;;5050788;28;20049;-68
2022/11/09 11:05:59;;;;;;;16.55;4.82;;;;;;;;;;5049623;28;20056;-68
2022/11/09 11:08:27;;;;;;;15.88;3.92;;;;;;;;;;5050172;28;20064;-67
2022/11/09 11:11:06;;;;;;;13.48;4.07;;;;;;;;;;5049680;28;20094;-68
2022/11/09 11:13:32;;;;;;;16.38;4.15;;;;;;;;;;5051371;28;20081;-67
2022/11/09 11:15:58;;;;;;;17.48;3.92;;;;;;;;;;5038084;28;20041;-68
2022/11/09 11:18:25;;;;;;;17.13;5.32;;;;;;;;;;5049418;28;20084;-68
2022/11/09 11:21:07;;;;;;;15.43;3.70;;;;;;;;;;5050049;28;20427;-68
2022/11/09 11:23:35;;;;;;;14.45;3.78;;;;;;;;;;5055060;28;20041;-68
2022/11/09 11:26:12;;;;;;;17.45;4.30;;;;;;;;;;5053996;28;20093;-67
2022/11/09 11:28:42;;;;;;;12.57;4.32;;;;;;;;;;5047828;28;20041;-67
2022/11/09 11:31:12;;;;;;;14.27;4.30;;;;;;;;;;5052948;28;20052;-68
2022/11/09 11:33:39;;;;;;;19.90;5.07;;;;;;;;;;5047084;28;20040;-67
2022/11/09 11:36:12;;;;;;;16.33;4.18;;;;;;;;;;5080525;28;20049;-68
2022/11/09 11:38:43;;;;;;;15.35;4.13;;;;;;;;;;5041265;28;20039;-67
2022/11/09 11:41:27;;;;;;;19.77;4.25;;;;;;;;;;5052399;28;20489;-67
2022/11/09 11:43:59;;;;;;;14.40;3.85;;;;;;;;;;5054403;28;20083;-67
2022/11/09 11:46:25;;;;;;;15.57;4.18;;;;;;;;;;5053776;28;20048;-67
2022/11/09 11:49:12;;;;;;;19.73;6.22;;;;;;;;;;5054361;28;20049;-67
2022/11/09 11:51:47;;;;;;;19.02;5.97;;;;;;;;;;5085259;28;20041;-68
2022/11/09 11:54:16;;;;;;;16.95;5.18;;;;;;;;;;5052558;28;20389;-67
2022/11/09 11:56:46;;;;;;;14.80;4.80;;;;;;;;;;5050850;28;20370;-67
2022/11/09 11:59:28;;;;;;;17.00;5.85;;;;;;;;;;5044469;28;20049;-67
2022/11/09 12:02:01;;;;;;;18.92;6.80;;;;;;;;;;5045785;28;20134;-66
2022/11/09 12:04:37;;;;;;;26.08;7.22;;;;;;;;;;5082213;28;20048;-66
2022/11/09 12:07:17;;;;;;;23.63;5.65;;;;;;;;;;5040933;28;20075;-66
2022/11/09 12:09:59;;;;;;;14.63;4.32;;;;;;;;;;5049155;28;20057;-65
2022/11/09 12:12:44;;;;;;;8.55;3.03;;;;;;;;;;5050676;28;20164;-69
2022/11/09 12:15:21;;;;;;;6.20;1.77;;;;;;;;;;5048716;28;20189;-66
2022/11/09 12:18:03;;;;;;;8.23;2.10;;;;;;;;;;5049687;28;20170;-66
2022/11/09 12:20:55;;;;;;;7.80;2.25;;;;;;;;;;5049506;28;20388;-66
2022/11/09 12:23:24;;;;;;;6.75;2.20;;;;;;;;;;5052644;28;20041;-66
2022/11/09 12:25:50;;;;;;;5.97;2.10;;;;;;;;;;5086146;28;20052;-66
2022/11/09 12:28:33;;;;;;;9.85;2.20;;;;;;;;;;5053631;28;20041;-66
2022/11/09 12:31:17;;;;;;;8.30;2.60;;;;;;;;;;5053542;28;20128;-66
2022/11/09 12:33:54;;;;;;;6.93;2.00;;;;;;;;;;5041223;28;20388;-66
2022/11/09 12:36:23;;;;;;;10.05;2.47;;;;;;;;;;5051904;28;20239;-66
2022/11/09 12:38:53;;;;;;;5.30;2.40;;;;;;;;;;5052133;28;20147;-66
2022/11/09 12:41:21;;;;;;;3.20;1.58;;;;;;;;;;5046727;28;20395;-66
2022/11/09 12:43:53;;;;;;;5.07;1.40;;;;;;;;;;5052858;28;20044;-66
2022/11/09 12:46:22;;;;;;;3.83;1.13;;;;;;;;;;5040117;28;20378;-66
2022/11/09 12:48:48;;;;;;;3.78;1.30;;;;;;;;;;5039418;28;20045;-66
2022/11/09 12:51:15;;;;;;;3.65;1.35;;;;;;;;;;5051341;28;20136;-66
2022/11/09 12:53:41;;;;;;;3.03;1.25;;;;;;;;;;5052514;28;20053;-66
2022/11/09 12:56:08;;;;;;;3.72;1.50;;;;;;;;;;5052315;28;20040;-66
2022/11/09 12:58:36;;;;;;;5.25;1.50;;;;;;;;;;5048513;28;20059;-66
2022/11/09 13:01:04;;;;;;;6.35;1.48;;;;;;;;;;5034533;28;20045;-66
2022/11/09 13:03:32;;;;;;;4.97;1.20;;;;;;;;;;5048651;28;20068;-67
2022/11/09 13:06:10;;;;;;;5.53;1.40;;;;;;;;;;5045377;28;20114;-66
2022/11/09 13:08:36;;;;;;;3.33;1.27;;;;;;;;;;5049300;28;20075;-67
2022/11/09 13:11:08;;;;;;;4.50;1.30;;;;;;;;;;5041747;28;20049;-66
2022/11/09 13:13:34;;;;;;;7.28;1.50;;;;;;;;;;5038522;28;20496;-78
2022/11/09 13:16:03;;;;;;;4.45;1.40;;;;;;;;;;5044192;28;20045;-66
2022/11/09 13:18:30;;;;;;;14.32;1.98;;;;;;;;;;5046081;28;20044;-66
2022/11/09 13:20:56;;;;;;;8.48;1.92;;;;;;;;;;5037148;28;20053;-66
2022/11/09 13:23:29;;;;;;;8.43;1.98;;;;;;;;;;5042496;28;20128;-67
2022/11/09 13:25:56;;;;;;;5.80;1.98;;;;;;;;;;5041427;28;20057;-67
2022/11/09 13:28:28;;;;;;;5.95;2.10;;;;;;;;;;5044087;28;20045;-67
2022/11/09 13:30:59;;;;;;;8.80;2.47;;;;;;;;;;5038298;28;20543;-67
2022/11/09 13:33:27;;;;;;;16.73;3.33;;;;;;;;;;5074349;28;20068;-67
2022/11/09 13:35:54;;;;;;;11.98;3.58;;;;;;;;;;5045868;28;20128;-66
2022/11/09 13:38:21;;;;;;;11.90;3.60;;;;;;;;;;5047114;28;20052;-68
2022/11/09 13:40:49;;;;;;;16.42;4.10;;;;;;;;;;5044203;28;20048;-66
2022/11/09 13:43:18;;;;;;;15.90;4.60;;;;;;;;;;5043738;28;20116;-67
2022/11/09 13:45:46;;;;;;;10.57;3.72;;;;;;;;;;5039851;28;20686;-67
2022/11/09 13:48:25;;;;;;;9.65;4.03;;;;;;;;;;5042211;28;20048;-66
2022/11/09 13:50:53;;;;;;;14.48;4.18;;;;;;;;;;5043338;28;20041;-67
2022/11/09 13:53:39;;;;;;;15.57;4.50;;;;;;;;;;5075225;28;20044;-66
2022/11/09 13:56:18;;;;;;;20.45;4.72;;;;;;;;;;5045086;28;20049;-66
2022/11/09 13:58:45;;;;;;;18.38;5.00;;;;;;;;;;5044425;28;20049;-67
2022/11/09 14:01:33;;;;;;;19.45;5.38;;;;;;;;;;5043728;28;21613;-66
2022/11/09 14:04:00;;;;;;;18.35;4.97;;;;;;;;;;5049668;28;20036;-66
2022/11/09 14:06:28;;;;;;;23.25;5.50;;;;;;;;;;5042142;28;20049;-66
2022/11/09 14:08:55;;;;;;;11.25;3.97;;;;;;;;;;5045169;28;20045;-67
2022/11/09 14:11:33;;;;;;;11.32;3.75;;;;;;;;;;5044683;28;20119;-68
2022/11/09 14:14:00;;;;;;;11.52;3.83;;;;;;;;;;5044350;28;20048;-67
2022/11/09 14:16:33;;;;;;;18.10;4.28;;;;;;;;;;5045986;28;20098;-67
2022/11/09 14:19:06;;;;;;;12.77;4.20;;;;;;;;;;5043263;28;20044;-67
2022/11/09 14:21:39;;;;;;;14.35;3.20;;;;;;;;;;5038440;28;20036;-66
2022/11/09 14:24:16;;;;;;;13.20;3.45;;;;;;;;;;5041856;28;20484;-67
2022/11/09 14:26:59;;;;;;;8.68;1.70;;;;;;;;;;5044546;28;20047;-67
2022/11/09 14:29:26;;;;;;;10.95;2.15;;;;;;;;;;5044155;28;20514;-67
2022/11/09 14:31:52;;;;;;;10.82;2.70;;;;;;;;;;5040007;28;20049;-67
2022/11/09 14:34:20;;;;;;;8.55;2.53;;;;;;;;;;5079588;28;20596;-67
2022/11/09 14:36:46;;;;;;;10.73;1.90;;;;;;;;;;5047289;28;20040;-67
2022/11/09 14:39:23;;;;;;;11.43;2.55;;;;;;;;;;5049093;28;20124;-67